createdAt,value
2019-03-10T00:00:40.648Z,7.19
2019-03-10T00:03:09.670Z,7.34
2019-03-10T00:05:38.876Z,7.27
2019-03-10T00:08:09.078Z,7.19
2019-03-10T00:10:38.271Z,7.30
2019-03-10T00:13:07.447Z,7.24
2019-03-10T00:15:36.754Z,7.26
2019-03-10T00:18:05.935Z,7.13
2019-03-10T00:20:35.167Z,7.10
2019-03-10T00:23:04.323Z,7.09
2019-03-10T00:25:33.451Z,6.96
2019-03-10T00:28:02.606Z,6.96
2019-03-10T00:30:31.793Z,6.88
2019-03-10T00:33:01.079Z,6.93
2019-03-10T00:35:30.275Z,6.95
2019-03-10T00:38:01.637Z,6.92
2019-03-10T00:41:24.800Z,6.95
2019-03-10T00:44:35.959Z,6.85
2019-03-10T00:47:26.197Z,6.86
2019-03-10T00:50:33.279Z,6.86
2019-03-10T00:53:02.643Z,6.90
2019-03-10T00:55:31.894Z,6.90
2019-03-10T00:58:01.068Z,6.93
2019-03-10T01:00:30.233Z,6.82
2019-03-10T01:02:59.292Z,6.81
2019-03-10T01:05:28.426Z,6.69
2019-03-10T01:07:57.543Z,6.79
2019-03-10T01:10:26.572Z,6.80
2019-03-10T01:12:55.819Z,6.75
2019-03-10T01:15:24.820Z,6.78
2019-03-10T01:17:54.774Z,6.82
2019-03-10T01:20:23.847Z,6.82
2019-03-10T01:22:53.019Z,6.79
2019-03-10T01:25:22.115Z,6.79
2019-03-10T01:27:51.195Z,6.77
2019-03-10T01:30:22.936Z,6.77
2019-03-10T01:33:32.735Z,6.95
2019-03-10T01:36:01.747Z,6.95
2019-03-10T01:38:30.794Z,6.78
2019-03-10T01:40:59.802Z,6.83
2019-03-10T01:43:28.835Z,6.88
2019-03-10T01:45:58.185Z,6.88
2019-03-10T01:48:27.309Z,6.95
2019-03-10T01:50:56.344Z,6.95
2019-03-10T01:53:26.016Z,6.99
2019-03-10T01:55:55.126Z,6.92
2019-03-10T01:58:25.919Z,6.92
2019-03-10T02:00:55.080Z,6.76
2019-03-10T02:03:24.068Z,6.92
2019-03-10T02:05:53.153Z,6.87
2019-03-10T02:08:22.212Z,6.87
2019-03-10T02:10:51.255Z,6.51
2019-03-10T02:13:20.284Z,6.51
2019-03-10T02:15:49.423Z,6.73
2019-03-10T02:18:18.507Z,6.77
2019-03-10T02:20:47.579Z,6.88
2019-03-10T02:23:16.572Z,6.95
2019-03-10T02:25:45.566Z,6.85
2019-03-10T02:28:14.578Z,6.76
2019-03-10T02:30:43.653Z,6.78
2019-03-10T02:33:12.651Z,6.78
2019-03-10T02:35:41.643Z,7.00
2019-03-10T02:38:10.610Z,6.90
2019-03-10T02:40:39.652Z,6.90
2019-03-10T02:43:08.637Z,6.92
2019-03-10T02:45:37.804Z,6.83
2019-03-10T02:48:06.855Z,6.87
2019-03-10T02:50:35.826Z,6.86
2019-03-10T02:53:04.994Z,6.91
2019-03-10T02:55:34.061Z,6.91
2019-03-10T02:58:03.050Z,6.83
2019-03-10T03:00:32.113Z,6.84
2019-03-10T03:03:01.151Z,6.76
2019-03-10T03:05:30.145Z,6.76
2019-03-10T03:07:59.133Z,6.76
2019-03-10T03:10:28.238Z,6.87
2019-03-10T03:12:57.381Z,6.76
2019-03-10T03:15:26.501Z,6.86
2019-03-10T03:17:55.556Z,6.81
2019-03-10T03:20:26.870Z,6.81
2019-03-10T03:22:55.880Z,6.81
2019-03-10T03:25:25.037Z,6.76
2019-03-10T03:27:54.019Z,6.76
2019-03-10T03:30:23.128Z,6.66
2019-03-10T03:32:52.162Z,6.72
2019-03-10T03:35:59.901Z,6.72
2019-03-10T03:38:35.234Z,6.72
2019-03-10T03:41:06.873Z,6.66
2019-03-10T03:43:35.869Z,6.72
2019-03-10T03:46:04.874Z,6.74
2019-03-10T03:48:33.831Z,6.74
2019-03-10T03:51:02.827Z,6.74
2019-03-10T03:53:31.825Z,6.63
2019-03-10T03:56:00.868Z,6.63
2019-03-10T03:58:30.011Z,6.76
2019-03-10T04:01:04.355Z,6.76
2019-03-10T04:03:33.332Z,6.69
2019-03-10T04:06:02.364Z,6.74
2019-03-10T04:08:31.359Z,6.54
2019-03-10T04:11:00.392Z,6.54
2019-03-10T04:13:29.397Z,6.55
2019-03-10T04:15:58.414Z,6.55
2019-03-10T04:18:27.492Z,6.55
2019-03-10T04:20:56.470Z,6.54
2019-03-10T04:23:25.475Z,6.47
2019-03-10T04:25:54.514Z,6.52
2019-03-10T04:28:23.505Z,6.43
2019-03-10T04:30:52.675Z,6.46
2019-03-10T04:33:21.673Z,6.53
2019-03-10T04:35:50.781Z,6.52
2019-03-10T04:38:19.953Z,6.48
2019-03-10T04:40:49.083Z,6.48
2019-03-10T04:43:18.180Z,6.48
2019-03-10T04:45:47.341Z,6.46
2019-03-10T04:48:16.345Z,6.38
2019-03-10T04:50:45.393Z,6.38
2019-03-10T04:53:14.403Z,6.35
2019-03-10T04:55:48.926Z,6.35
2019-03-10T04:58:17.986Z,6.37
2019-03-10T05:00:50.154Z,6.33
2019-03-10T05:03:19.127Z,6.33
2019-03-10T05:05:51.353Z,6.36
2019-03-10T05:08:20.433Z,6.24
2019-03-10T05:10:49.583Z,6.20
2019-03-10T05:13:18.559Z,6.20
2019-03-10T05:15:47.563Z,6.16
2019-03-10T05:18:16.562Z,6.15
2019-03-10T05:20:45.547Z,6.15
2019-03-10T05:23:31.515Z,6.15
2019-03-10T05:26:01.719Z,6.16
2019-03-10T05:28:31.639Z,6.00
2019-03-10T05:31:01.046Z,5.96
2019-03-10T05:33:30.023Z,5.96
2019-03-10T05:35:59.126Z,5.99
2019-03-10T05:38:28.140Z,5.99
2019-03-10T05:40:57.235Z,6.03
2019-03-10T05:43:26.250Z,5.95
2019-03-10T05:45:55.343Z,5.95
2019-03-10T05:48:25.761Z,5.97
2019-03-10T05:50:54.751Z,5.97
2019-03-10T05:53:23.718Z,5.92
2019-03-10T05:55:52.795Z,5.96
2019-03-10T05:58:21.773Z,6.06
2019-03-10T06:00:50.917Z,6.05
2019-03-10T06:03:19.998Z,5.91
2019-03-10T06:05:49.085Z,5.82
2019-03-10T06:08:18.092Z,5.82
2019-03-10T06:10:47.093Z,5.78
2019-03-10T06:13:16.181Z,5.87
2019-03-10T06:15:45.187Z,5.87
2019-03-10T06:18:14.295Z,5.81
2019-03-10T06:20:43.367Z,5.69
2019-03-10T06:23:12.402Z,5.69
2019-03-10T06:25:41.545Z,5.72
2019-03-10T06:28:10.964Z,5.72
2019-03-10T06:30:39.960Z,5.56
2019-03-10T06:33:08.953Z,5.59
2019-03-10T06:35:37.963Z,5.59
2019-03-10T06:38:07.047Z,5.56
2019-03-10T06:40:36.107Z,5.57
2019-03-10T06:43:05.279Z,5.57
2019-03-10T06:45:34.281Z,5.57
2019-03-10T06:48:03.401Z,5.51
2019-03-10T06:50:32.597Z,5.51
2019-03-10T06:53:01.596Z,5.48
2019-03-10T06:55:30.690Z,5.41
2019-03-10T06:57:59.716Z,5.41
2019-03-10T07:00:28.755Z,5.42
2019-03-10T07:02:57.778Z,5.38
2019-03-10T07:05:35.216Z,5.33
2019-03-10T07:08:04.457Z,5.33
2019-03-10T07:10:33.438Z,5.41
2019-03-10T07:13:02.435Z,5.51
2019-03-10T07:15:31.460Z,5.47
2019-03-10T07:18:00.487Z,5.38
2019-03-10T07:20:29.513Z,5.42
2019-03-10T07:22:58.529Z,5.31
2019-03-10T07:25:27.656Z,5.31
2019-03-10T07:28:30.701Z,5.37
2019-03-10T07:31:21.816Z,5.44
2019-03-10T07:33:58.607Z,5.41
2019-03-10T07:36:31.964Z,5.41
2019-03-10T07:39:19.900Z,5.51
2019-03-10T07:41:53.617Z,5.36
2019-03-10T07:44:27.555Z,5.48
2019-03-10T07:47:06.069Z,5.48
2019-03-10T07:49:43.592Z,5.54
2019-03-10T07:52:21.763Z,5.49
2019-03-10T07:55:12.486Z,5.49
2019-03-10T07:57:59.000Z,5.41
2019-03-10T08:00:36.280Z,5.57
2019-03-10T08:03:26.807Z,5.49
2019-03-10T08:06:09.990Z,5.37
2019-03-10T08:09:01.637Z,5.56
2019-03-10T08:11:51.021Z,5.56
2019-03-10T08:14:47.764Z,5.54
2019-03-10T08:17:33.583Z,5.54
2019-03-10T08:20:17.137Z,5.54
2019-03-10T08:23:01.341Z,5.60
2019-03-10T08:26:01.561Z,5.41
2019-03-10T08:28:58.659Z,5.56
2019-03-10T08:31:38.586Z,5.54
2019-03-10T08:34:35.328Z,5.47
2019-03-10T08:37:12.780Z,5.47
2019-03-10T08:40:00.797Z,5.41
2019-03-10T08:42:45.195Z,5.41
2019-03-10T08:45:27.575Z,5.43
2019-03-10T08:48:27.567Z,5.61
2019-03-10T08:51:09.081Z,5.57
2019-03-10T08:53:43.755Z,5.62
2019-03-10T08:56:20.363Z,5.67
2019-03-10T08:59:01.588Z,5.46
2019-03-10T09:01:47.951Z,5.46
2019-03-10T09:04:32.037Z,5.81
2019-03-10T09:07:19.970Z,5.81
2019-03-10T09:10:07.368Z,5.77
2019-03-10T09:12:58.402Z,5.99
2019-03-10T09:15:36.307Z,5.75
2019-03-10T09:18:24.336Z,5.73
2019-03-10T09:21:14.939Z,5.73
2019-03-10T09:24:02.076Z,5.65
2019-03-10T09:26:59.368Z,5.65
2019-03-10T09:30:05.691Z,5.82
2019-03-10T09:32:49.023Z,5.68
2019-03-10T09:35:25.665Z,5.80
2019-03-10T09:38:22.427Z,5.86
2019-03-10T09:41:22.715Z,5.96
2019-03-10T09:44:10.660Z,5.89
2019-03-10T09:46:51.033Z,5.92
2019-03-10T09:49:34.622Z,5.88
2019-03-10T09:52:17.394Z,5.88
2019-03-10T09:55:13.245Z,5.97
2019-03-10T09:58:00.433Z,5.94
2019-03-10T10:00:48.449Z,5.99
2019-03-10T10:03:25.477Z,5.99
2019-03-10T10:06:11.696Z,5.75
2019-03-10T10:09:05.466Z,5.75
2019-03-10T10:11:40.051Z,6.02
2019-03-10T10:14:22.601Z,5.92
2019-03-10T10:17:13.852Z,5.92
2019-03-10T10:20:05.794Z,6.13
2019-03-10T10:22:40.783Z,6.13
2019-03-10T10:25:24.694Z,6.13
2019-03-10T10:28:11.946Z,6.20
2019-03-10T10:30:58.471Z,6.18
2019-03-10T10:33:52.642Z,6.19
2019-03-10T10:36:39.466Z,6.26
2019-03-10T10:39:22.424Z,6.49
2019-03-10T10:42:05.717Z,6.71
2019-03-10T10:44:52.007Z,6.94
2019-03-10T10:47:41.400Z,7.08
2019-03-10T10:50:38.636Z,7.08
2019-03-10T10:53:25.743Z,7.25
2019-03-10T10:56:12.958Z,7.25
2019-03-10T10:58:57.717Z,7.42
2019-03-10T11:01:38.187Z,7.78
2019-03-10T11:04:25.082Z,7.89
2019-03-10T11:07:03.349Z,7.81
2019-03-10T11:09:54.302Z,7.81
2019-03-10T11:12:41.443Z,7.96
2019-03-10T11:15:36.001Z,7.96
2019-03-10T11:18:26.973Z,8.07
2019-03-10T11:21:09.564Z,8.07
2019-03-10T11:23:48.896Z,8.12
2019-03-10T11:26:22.401Z,8.32
2019-03-10T11:29:06.981Z,8.55
2019-03-10T11:31:40.575Z,8.89
2019-03-10T11:34:34.840Z,9.10
2019-03-10T11:37:22.763Z,9.41
2019-03-10T11:40:23.178Z,9.41
2019-03-10T11:43:05.846Z,9.62
2019-03-10T11:45:44.377Z,9.82
2019-03-10T11:48:31.294Z,9.82
2019-03-10T11:51:31.288Z,10.22
2019-03-10T11:54:11.476Z,10.22
2019-03-10T11:57:02.445Z,10.27
2019-03-10T11:59:36.269Z,10.20
2019-03-10T12:02:21.459Z,10.20
2019-03-10T12:05:21.906Z,10.13
2019-03-10T12:07:58.459Z,10.18
2019-03-10T12:10:27.636Z,10.11
2019-03-10T12:12:56.673Z,10.11
2019-03-10T12:15:25.762Z,9.95
2019-03-10T12:17:54.939Z,9.86
2019-03-10T12:20:23.926Z,9.86
2019-03-10T12:22:52.936Z,9.86
2019-03-10T12:25:22.052Z,9.84
2019-03-10T12:27:51.120Z,9.83
2019-03-10T12:30:20.233Z,9.70
2019-03-10T12:32:49.307Z,9.70
2019-03-10T12:35:18.401Z,9.69
2019-03-10T12:37:47.399Z,9.64
2019-03-10T12:40:16.590Z,9.68
2019-03-10T12:42:45.629Z,9.68
2019-03-10T12:45:14.799Z,9.57
2019-03-10T12:47:43.830Z,9.40
2019-03-10T12:50:14.471Z,9.15
2019-03-10T12:52:43.637Z,9.01
2019-03-10T12:55:12.777Z,9.01
2019-03-10T12:57:41.835Z,8.92
2019-03-10T13:00:13.372Z,8.86
2019-03-10T13:02:42.035Z,8.86
2019-03-10T13:05:11.577Z,8.60
2019-03-10T13:07:40.667Z,8.31
2019-03-10T13:10:12.488Z,8.22
2019-03-10T13:12:40.607Z,8.22
2019-03-10T13:15:10.336Z,8.12
2019-03-10T13:17:39.403Z,8.06
2019-03-10T13:20:09.249Z,8.06
2019-03-10T13:22:38.252Z,8.04
2019-03-10T13:25:08.283Z,8.04
2019-03-10T13:27:37.329Z,8.05
2019-03-10T13:30:06.667Z,8.05
2019-03-10T13:32:35.788Z,8.10
2019-03-10T13:35:05.416Z,8.13
2019-03-10T13:37:34.437Z,8.13
2019-03-10T13:40:03.603Z,8.18
2019-03-10T13:42:32.582Z,8.35
2019-03-10T13:45:01.713Z,8.58
2019-03-10T13:47:30.834Z,8.76
2019-03-10T13:49:59.934Z,8.76
2019-03-10T13:52:28.910Z,8.97
2019-03-10T13:54:57.971Z,9.25
2019-03-10T13:57:27.562Z,9.35
2019-03-10T13:59:56.614Z,9.47
2019-03-10T14:02:25.631Z,9.47
2019-03-10T14:04:54.816Z,9.40
2019-03-10T14:07:23.890Z,9.34
2019-03-10T14:09:52.877Z,9.20
2019-03-10T14:12:21.897Z,9.12
2019-03-10T14:14:50.881Z,8.98
2019-03-10T14:17:19.902Z,8.76
2019-03-10T14:19:48.903Z,8.76
2019-03-10T14:22:17.949Z,7.30
2019-03-10T14:24:47.092Z,7.30
2019-03-10T14:27:16.247Z,5.74
2019-03-10T14:29:45.356Z,5.32
2019-03-10T14:32:14.575Z,5.32
2019-03-10T14:34:43.747Z,5.18
2019-03-10T14:37:12.743Z,5.18
2019-03-10T14:39:41.805Z,5.11
2019-03-10T14:42:10.822Z,5.11
2019-03-10T14:44:39.846Z,4.99
2019-03-10T14:47:08.926Z,4.99
2019-03-10T14:49:38.029Z,4.71
2019-03-10T14:52:07.086Z,4.82
2019-03-10T14:54:36.078Z,4.82
2019-03-10T14:57:05.283Z,4.72
2019-03-10T14:59:34.271Z,4.72
2019-03-10T15:02:03.868Z,4.49
2019-03-10T15:04:32.913Z,4.46
2019-03-10T15:07:03.197Z,4.46
2019-03-10T15:09:32.520Z,4.11
2019-03-10T15:12:01.501Z,4.09
2019-03-10T15:14:30.599Z,4.05
2019-03-10T15:17:02.387Z,4.03
2019-03-10T15:19:30.476Z,4.03
2019-03-10T15:21:59.615Z,4.26
2019-03-10T15:24:28.686Z,4.18
2019-03-10T15:26:57.787Z,4.28
2019-03-10T15:29:26.815Z,4.13
2019-03-10T15:31:55.876Z,4.18
2019-03-10T15:34:24.975Z,4.16
2019-03-10T15:36:54.033Z,4.12
2019-03-10T15:39:23.137Z,4.21
2019-03-10T15:41:52.156Z,4.31
2019-03-10T15:44:21.177Z,4.31
2019-03-10T15:46:50.211Z,4.31
2019-03-10T15:49:19.211Z,4.26
2019-03-10T15:51:48.337Z,4.26
2019-03-10T15:54:19.040Z,4.35
2019-03-10T15:56:48.039Z,4.37
2019-03-10T15:59:18.589Z,4.37
2019-03-10T16:01:47.663Z,4.37
2019-03-10T16:04:18.812Z,4.37
2019-03-10T16:06:47.990Z,4.43
2019-03-10T16:09:17.226Z,4.43
2019-03-10T16:11:46.371Z,4.53
2019-03-10T16:14:15.448Z,4.33
2019-03-10T16:16:44.521Z,4.33
2019-03-10T16:19:13.634Z,4.46
2019-03-10T16:21:42.772Z,4.46
2019-03-10T16:24:11.795Z,4.28
2019-03-10T16:26:40.863Z,4.25
2019-03-10T16:29:09.967Z,4.32
2019-03-10T16:31:39.078Z,4.28
2019-03-10T16:34:08.179Z,4.28
2019-03-10T16:36:37.197Z,4.22
2019-03-10T16:39:08.556Z,4.24
2019-03-10T16:41:37.673Z,4.24
2019-03-10T16:44:06.779Z,4.29
2019-03-10T16:46:35.871Z,4.24
2019-03-10T16:49:04.900Z,4.17
2019-03-10T16:51:33.957Z,4.17
2019-03-10T16:54:03.094Z,4.17
2019-03-10T16:56:33.705Z,4.08
2019-03-10T16:59:03.093Z,4.13
2019-03-10T17:01:32.377Z,4.10
2019-03-10T17:04:01.435Z,4.05
2019-03-10T17:06:30.437Z,3.99
2019-03-10T17:08:59.425Z,3.97
2019-03-10T17:11:28.916Z,4.11
2019-03-10T17:14:04.773Z,3.95
2019-03-10T17:16:33.881Z,3.92
2019-03-10T17:19:02.907Z,3.81
2019-03-10T17:21:31.967Z,3.81
2019-03-10T17:24:01.120Z,3.48
2019-03-10T17:26:31.158Z,3.48
2019-03-10T17:29:00.339Z,3.22
2019-03-10T17:31:29.358Z,3.22
2019-03-10T17:33:58.470Z,2.79
2019-03-10T17:36:29.766Z,2.82
2019-03-10T17:38:59.070Z,2.96
2019-03-10T17:41:28.226Z,2.96
2019-03-10T17:43:57.331Z,2.83
2019-03-10T17:46:27.005Z,2.83
2019-03-10T17:48:56.014Z,2.92
2019-03-10T17:51:25.050Z,2.94
2019-03-10T17:53:54.198Z,2.93
2019-03-10T17:56:23.227Z,2.93
2019-03-10T17:58:52.413Z,2.93
2019-03-10T18:01:21.535Z,2.94
2019-03-10T18:03:50.525Z,2.92
2019-03-10T18:06:19.598Z,2.92
2019-03-10T18:08:48.792Z,2.89
2019-03-10T18:11:17.829Z,2.81
2019-03-10T18:13:46.817Z,2.81
2019-03-10T18:16:15.832Z,2.84
2019-03-10T18:18:45.072Z,2.88
2019-03-10T18:21:15.642Z,2.87
2019-03-10T18:23:45.570Z,2.92
2019-03-10T18:26:18.830Z,2.85
2019-03-10T18:28:59.588Z,2.83
2019-03-10T18:31:31.857Z,2.93
2019-03-10T18:34:01.050Z,2.93
2019-03-10T18:36:30.096Z,2.76
2019-03-10T18:38:59.126Z,2.80
2019-03-10T18:41:28.234Z,2.83
2019-03-10T18:43:57.408Z,2.86
2019-03-10T18:46:26.550Z,2.86
2019-03-10T18:48:57.122Z,2.90
2019-03-10T18:51:26.165Z,3.03
2019-03-10T18:53:55.261Z,3.03
2019-03-10T18:56:24.289Z,3.18
2019-03-10T18:58:53.927Z,3.18
2019-03-10T19:01:22.924Z,3.26
2019-03-10T19:03:51.910Z,3.37
2019-03-10T19:06:23.120Z,3.41
2019-03-10T19:08:52.373Z,3.44
2019-03-10T19:11:21.348Z,3.44
2019-03-10T19:13:50.399Z,3.42
2019-03-10T19:16:22.875Z,3.40
2019-03-10T19:18:51.858Z,3.40
2019-03-10T19:21:20.864Z,3.37
2019-03-10T19:23:50.045Z,3.19
2019-03-10T19:26:19.079Z,3.21
2019-03-10T19:28:48.226Z,3.21
2019-03-10T19:31:17.267Z,3.11
2019-03-10T19:33:46.273Z,3.11
2019-03-10T19:36:15.270Z,3.12
2019-03-10T19:38:44.278Z,2.97
2019-03-10T19:41:13.301Z,3.01
2019-03-10T19:43:42.316Z,3.14
2019-03-10T19:46:11.481Z,3.03
2019-03-10T19:48:40.552Z,3.03
2019-03-10T19:51:09.651Z,3.05
2019-03-10T19:53:38.738Z,3.22
2019-03-10T19:56:07.776Z,3.12
2019-03-10T19:58:36.810Z,3.32
2019-03-10T20:01:06.026Z,3.32
2019-03-10T20:03:35.174Z,3.25
2019-03-10T20:06:04.280Z,3.31
2019-03-10T20:08:33.472Z,3.21
2019-03-10T20:11:02.560Z,3.21
2019-03-10T20:13:31.581Z,3.32
2019-03-10T20:16:00.591Z,3.35
2019-03-10T20:18:29.727Z,3.23
2019-03-10T20:20:58.830Z,3.35
2019-03-10T20:23:27.846Z,3.35
2019-03-10T20:25:56.872Z,3.49
2019-03-10T20:28:25.985Z,3.55
2019-03-10T20:30:55.145Z,3.44
2019-03-10T20:33:24.196Z,3.44
2019-03-10T20:35:53.213Z,3.45
2019-03-10T20:38:22.288Z,3.38
2019-03-10T20:40:54.131Z,3.42
2019-03-10T20:43:23.129Z,3.42
2019-03-10T20:45:52.161Z,3.71
2019-03-10T20:48:21.244Z,3.63
2019-03-10T20:50:50.379Z,3.68
2019-03-10T20:53:19.436Z,3.48
2019-03-10T20:55:48.507Z,3.48
2019-03-10T20:58:17.574Z,3.41
2019-03-10T21:00:46.733Z,3.52
2019-03-10T21:03:15.750Z,3.63
2019-03-10T21:05:44.864Z,3.56
2019-03-10T21:08:14.021Z,3.56
2019-03-10T21:10:44.494Z,3.60
2019-03-10T21:13:13.574Z,3.61
2019-03-10T21:15:42.682Z,3.70
2019-03-10T21:18:11.918Z,3.70
2019-03-10T21:20:40.991Z,3.70
2019-03-10T21:23:10.028Z,3.67
2019-03-10T21:25:39.157Z,3.87
2019-03-10T21:28:08.188Z,3.80
2019-03-10T21:30:37.261Z,3.80
2019-03-10T21:33:06.343Z,3.94
2019-03-10T21:35:35.375Z,3.94
2019-03-10T21:38:04.349Z,4.04
2019-03-10T21:40:33.425Z,4.05
2019-03-10T21:43:02.576Z,4.05
2019-03-10T21:45:31.632Z,3.99
2019-03-10T21:48:00.729Z,3.75
2019-03-10T21:50:29.780Z,3.75
2019-03-10T21:52:58.780Z,4.05
2019-03-10T21:55:27.786Z,4.05
2019-03-10T21:57:56.871Z,4.03
2019-03-10T22:00:25.963Z,3.94
2019-03-10T22:02:54.937Z,3.94
2019-03-10T22:05:24.170Z,3.99
2019-03-10T22:07:53.251Z,4.05
2019-03-10T22:10:27.522Z,3.86
2019-03-10T22:12:53.116Z,3.93
2019-03-10T22:15:22.265Z,3.93
2019-03-10T22:17:51.254Z,4.02
2019-03-10T22:20:20.398Z,4.01
2019-03-10T22:22:50.178Z,4.01
2019-03-10T22:25:19.549Z,4.14
2019-03-10T22:27:51.680Z,4.14
2019-03-10T22:30:20.804Z,4.00
2019-03-10T22:32:51.553Z,3.98
2019-03-10T22:35:20.614Z,4.10
2019-03-10T22:37:49.772Z,4.10
2019-03-10T22:40:19.211Z,4.15
2019-03-10T22:42:48.342Z,4.15
2019-03-10T22:45:17.474Z,4.29
2019-03-10T22:47:46.520Z,4.02
2019-03-10T22:50:15.738Z,3.83
2019-03-10T22:52:44.916Z,3.91
2019-03-10T22:55:14.087Z,3.91
2019-03-10T22:57:43.215Z,3.88
2019-03-10T23:00:14.890Z,3.88
2019-03-10T23:02:44.027Z,4.12
2019-03-10T23:05:13.180Z,4.31
2019-03-10T23:07:42.352Z,4.12
2019-03-10T23:10:12.226Z,4.35
2019-03-10T23:12:41.315Z,4.35
2019-03-10T23:15:11.105Z,4.20
2019-03-10T23:17:40.185Z,4.68
2019-03-10T23:20:10.967Z,4.68
2019-03-10T23:22:40.140Z,4.40
2019-03-10T23:25:09.193Z,4.88
2019-03-10T23:27:38.322Z,5.17
2019-03-10T23:30:08.292Z,5.17
2019-03-10T23:32:38.565Z,4.66
2019-03-10T23:35:07.709Z,4.93
2019-03-10T23:37:36.741Z,4.93
2019-03-10T23:40:06.292Z,4.92
2019-03-10T23:42:35.413Z,4.61
2019-03-10T23:45:05.586Z,4.73
2019-03-10T23:47:35.243Z,4.92
2019-03-10T23:50:04.978Z,4.92
2019-03-10T23:52:34.064Z,4.65
2019-03-10T23:55:03.163Z,4.41
2019-03-10T23:57:32.236Z,4.14
